Time;durP1;ratioP1;P1;durP2;ratioP2;P2;SDS_P1;SDS_P2;PMS_P1;PMS_P2;Temp;Humidity;BMP_temperature;BMP_pressure;BME280_temperature;BME280_humidity;BME280_pressure;Samples;Min_cycle;Max_cycle;Signal;HPM_P1;HPM_P2
2022/03/25 12:32:37;;;;;;;18.67;16.13;;;;;;;;;;6185517;22;20113;-86
2022/03/25 12:35:17;;;;;;;20.13;16.35;;;;;;;;;;6187575;23;20016;-88
2022/03/25 12:37:46;;;;;;;21.08;18.58;;;;;;;;;;6187040;23;20037;-87
2022/03/25 12:40:16;;;;;;;22.67;20.27;;;;;;;;;;6186534;23;20011;-85
2022/03/25 12:42:42;;;;;;;23.58;19.98;;;;;;;;;;6186443;23;20056;-85
2022/03/25 12:45:08;;;;;;;22.38;18.27;;;;;;;;;;6186569;23;20432;-86
2022/03/25 12:47:36;;;;;;;20.88;18.23;;;;;;;;;;6184640;23;19997;-87
2022/03/25 18:00:46;;;;;;;18.05;12.50;;;;;;;;;;6164432;23;20048;-87
2022/03/25 18:03:12;;;;;;;20.65;13.10;;;;;;;;;;6191021;23;20017;-86
2022/03/25 18:05:38;;;;;;;18.60;13.52;;;;;;;;;;6218225;23;20374;-87
2022/03/25 18:08:11;;;;;;;19.67;13.82;;;;;;;;;;6217448;23;20416;-87
2022/03/25 18:10:41;;;;;;;18.67;14.02;;;;;;;;;;6217988;23;20336;-85
2022/03/25 18:13:07;;;;;;;21.00;12.95;;;;;;;;;;6219075;23;20019;-91
2022/03/25 18:15:36;;;;;;;18.35;13.55;;;;;;;;;;6218987;23;20059;-90
2022/03/25 18:18:03;;;;;;;17.75;13.27;;;;;;;;;;6218525;23;20012;-88
2022/03/25 18:20:28;;;;;;;18.40;14.85;;;;;;;;;;6192053;23;20016;-88
2022/03/25 18:22:55;;;;;;;20.30;13.73;;;;;;;;;;6191996;23;20009;-88
2022/03/25 18:25:20;;;;;;;19.88;14.52;;;;;;;;;;6192615;23;20382;-86
2022/03/25 18:27:46;;;;;;;20.10;13.15;;;;;;;;;;6193134;23;20063;-86
2022/03/25 18:30:13;;;;;;;17.02;13.13;;;;;;;;;;6219712;23;20067;-87
2022/03/25 18:32:40;;;;;;;19.70;13.75;;;;;;;;;;6192528;23;20012;-92
2022/03/25 18:35:06;;;;;;;20.70;14.65;;;;;;;;;;6192323;23;20102;-92
2022/03/25 18:37:33;;;;;;;20.23;13.57;;;;;;;;;;6192050;23;20000;-93
2022/03/25 18:39:58;;;;;;;18.55;13.98;;;;;;;;;;6192478;23;20087;-86
2022/03/25 18:42:24;;;;;;;16.33;12.57;;;;;;;;;;6191865;23;20032;-89
2022/03/25 18:44:49;;;;;;;17.25;13.10;;;;;;;;;;6192211;23;20058;-87
2022/03/25 18:47:15;;;;;;;17.92;14.10;;;;;;;;;;6191991;23;20008;-90
2022/03/25 18:49:40;;;;;;;17.33;13.60;;;;;;;;;;6218681;23;20027;-88
2022/03/25 18:52:06;;;;;;;20.60;14.85;;;;;;;;;;6191372;23;20047;-89
2022/03/25 18:54:32;;;;;;;25.52;18.50;;;;;;;;;;6218066;23;20062;-88
2022/03/25 18:56:59;;;;;;;21.83;16.67;;;;;;;;;;6217376;23;20004;-87
2022/03/25 18:59:24;;;;;;;21.63;17.52;;;;;;;;;;6218171;23;20000;-88
2022/03/25 19:01:50;;;;;;;18.10;14.30;;;;;;;;;;6161817;23;20032;-88
2022/03/25 19:04:15;;;;;;;20.90;14.00;;;;;;;;;;6187986;23;20442;-87
2022/03/25 19:06:41;;;;;;;18.58;14.07;;;;;;;;;;6187767;23;20059;-88
2022/03/25 19:09:07;;;;;;;19.27;14.18;;;;;;;;;;6188286;23;20412;-87
2022/03/25 19:11:32;;;;;;;22.50;15.15;;;;;;;;;;6189551;23;20416;-89
2022/03/25 19:13:58;;;;;;;23.20;15.32;;;;;;;;;;6190477;23;20404;-88
2022/03/25 19:16:25;;;;;;;21.77;14.50;;;;;;;;;;6190068;23;20068;-88
2022/03/25 19:18:50;;;;;;;22.92;15.10;;;;;;;;;;6189949;23;20001;-88
2022/03/25 19:21:16;;;;;;;19.88;15.23;;;;;;;;;;6199262;23;20012;-86
2022/03/25 19:23:42;;;;;;;19.50;15.88;;;;;;;;;;6186210;23;20025;-85
2022/03/25 19:26:08;;;;;;;26.83;17.45;;;;;;;;;;6181143;23;20021;-85
2022/03/25 19:28:34;;;;;;;24.45;16.92;;;;;;;;;;6211558;23;20028;-85
2022/03/25 19:31:00;;;;;;;25.98;17.00;;;;;;;;;;6210081;23;20009;-85
2022/03/25 19:33:25;;;;;;;25.98;17.83;;;;;;;;;;6208993;23;20009;-85
2022/03/25 19:35:51;;;;;;;25.35;17.70;;;;;;;;;;6181078;23;20016;-85
2022/03/25 19:38:17;;;;;;;25.10;17.55;;;;;;;;;;6183199;23;19993;-86
2022/03/25 19:40:43;;;;;;;27.77;20.33;;;;;;;;;;6208083;23;20009;-86
2022/03/25 19:43:08;;;;;;;26.13;18.23;;;;;;;;;;6184781;23;19993;-85
2022/03/25 19:45:34;;;;;;;25.88;17.27;;;;;;;;;;6211844;23;19985;-87
2022/03/25 19:48:00;;;;;;;26.40;18.67;;;;;;;;;;6208253;23;20005;-87
2022/03/25 19:50:25;;;;;;;27.52;18.50;;;;;;;;;;6175260;23;20072;-87
2022/03/25 19:52:51;;;;;;;34.65;22.92;;;;;;;;;;6171585;23;20084;-92
2022/03/25 19:55:18;;;;;;;30.40;19.92;;;;;;;;;;6196669;23;20005;-91
2022/03/25 19:57:44;;;;;;;29.38;18.90;;;;;;;;;;6172477;23;20087;-88
2022/03/25 20:00:10;;;;;;;24.27;16.85;;;;;;;;;;6168046;23;20068;-88
2022/03/25 20:02:37;;;;;;;24.60;16.63;;;;;;;;;;6167383;23;20080;-92
2022/03/25 20:05:03;;;;;;;25.25;16.13;;;;;;;;;;6163512;23;20009;-92
2022/03/25 20:07:29;;;;;;;22.30;15.45;;;;;;;;;;6163508;23;20001;-94
2022/03/25 20:09:55;;;;;;;20.00;14.52;;;;;;;;;;6163296;23;20427;-92
2022/03/25 20:12:21;;;;;;;21.25;14.63;;;;;;;;;;6164384;23;20083;-94
2022/03/25 20:14:47;;;;;;;18.52;14.85;;;;;;;;;;6191057;23;20420;-94
2022/03/25 20:17:14;;;;;;;24.42;17.73;;;;;;;;;;6164797;23;20001;-94
2022/03/25 20:19:39;;;;;;;27.85;17.58;;;;;;;;;;6162960;23;20008;-90
2022/03/25 20:22:06;;;;;;;28.92;17.48;;;;;;;;;;6161341;23;20424;-90
2022/03/25 20:24:32;;;;;;;23.63;16.98;;;;;;;;;;6161646;23;20009;-89
2022/03/25 20:26:57;;;;;;;24.60;16.90;;;;;;;;;;6161020;23;20007;-87
2022/03/25 20:29:25;;;;;;;24.15;16.88;;;;;;;;;;6187162;23;20009;-88
2022/03/25 20:31:55;;;;;;;22.95;15.95;;;;;;;;;;6186665;23;20490;-87
2022/03/25 20:34:22;;;;;;;23.52;16.05;;;;;;;;;;6160847;23;20444;-89
2022/03/25 20:36:48;;;;;;;29.25;19.75;;;;;;;;;;6160310;23;20091;-88
2022/03/25 20:39:14;;;;;;;26.13;18.38;;;;;;;;;;6161014;23;20005;-90
2022/03/25 20:41:40;;;;;;;27.65;18.75;;;;;;;;;;6160241;23;20352;-88
2022/03/25 20:44:06;;;;;;;24.88;17.75;;;;;;;;;;6160829;23;20000;-88
2022/03/25 20:46:33;;;;;;;25.25;17.50;;;;;;;;;;6160943;23;20009;-90
2022/03/25 20:48:58;;;;;;;27.80;18.45;;;;;;;;;;6186891;23;20009;-89
2022/03/25 20:51:24;;;;;;;30.27;19.75;;;;;;;;;;6187645;23;20005;-89
2022/03/25 20:53:50;;;;;;;29.70;20.58;;;;;;;;;;6187170;23;20000;-88
2022/03/25 20:56:15;;;;;;;29.95;20.33;;;;;;;;;;6187235;23;20001;-89
2022/03/25 20:58:41;;;;;;;30.25;19.73;;;;;;;;;;6161079;23;20012;-89
2022/03/25 21:01:06;;;;;;;27.45;18.90;;;;;;;;;;6160482;23;20099;-89
2022/03/25 21:03:32;;;;;;;28.10;19.48;;;;;;;;;;6187427;23;20008;-89
2022/03/25 21:05:57;;;;;;;192.65;73.68;;;;;;;;;;6160455;23;20005;-88
2022/03/25 21:08:26;;;;;;;438.15;166.02;;;;;;;;;;6186952;23;20085;-89
2022/03/25 21:10:56;;;;;;;228.43;92.47;;;;;;;;;;6160491;23;20009;-87
2022/03/25 21:13:21;;;;;;;59.60;35.17;;;;;;;;;;6185816;23;20005;-88
2022/03/25 21:15:47;;;;;;;52.00;32.10;;;;;;;;;;6186715;23;20080;-87
2022/03/25 21:18:13;;;;;;;32.10;22.02;;;;;;;;;;6160573;23;20004;-89
2022/03/25 21:20:38;;;;;;;36.20;23.08;;;;;;;;;;6185104;23;20333;-85
2022/03/25 21:23:08;;;;;;;32.80;21.17;;;;;;;;;;6187042;23;20001;-87
2022/03/25 21:25:34;;;;;;;29.20;19.58;;;;;;;;;;6186540;23;20029;-85
2022/03/25 21:28:00;;;;;;;32.83;20.92;;;;;;;;;;6188017;23;20298;-88
2022/03/25 21:30:26;;;;;;;31.80;21.73;;;;;;;;;;6161520;23;20005;-89
2022/03/25 21:32:52;;;;;;;32.38;22.33;;;;;;;;;;6187265;23;20089;-90
2022/03/25 21:35:19;;;;;;;33.63;21.38;;;;;;;;;;6160752;23;20031;-89
2022/03/25 21:37:44;;;;;;;40.38;23.25;;;;;;;;;;6160390;23;20001;-86
2022/03/25 21:40:11;;;;;;;30.88;22.17;;;;;;;;;;6160483;23;20007;-93
2022/03/25 21:42:36;;;;;;;33.83;22.55;;;;;;;;;;6186542;23;19997;-89
2022/03/25 21:45:02;;;;;;;31.90;21.92;;;;;;;;;;6187053;23;20034;-91
2022/03/25 21:47:28;;;;;;;27.52;20.05;;;;;;;;;;6160754;23;20005;-85
2022/03/25 21:49:53;;;;;;;30.63;21.30;;;;;;;;;;6186806;23;20380;-93
2022/03/25 21:52:19;;;;;;;30.40;21.42;;;;;;;;;;6161010;23;20381;-91
2022/03/25 21:54:44;;;;;;;34.55;22.80;;;;;;;;;;6186792;23;20001;-91
2022/03/25 21:57:10;;;;;;;28.77;20.50;;;;;;;;;;6186552;23;20048;-85
2022/03/25 21:59:36;;;;;;;32.75;21.63;;;;;;;;;;6159710;23;20020;-86
2022/03/25 22:02:03;;;;;;;30.75;20.35;;;;;;;;;;6160193;23;20009;-85
2022/03/25 22:04:30;;;;;;;32.33;21.33;;;;;;;;;;6186512;23;19993;-90
2022/03/25 22:06:56;;;;;;;29.65;20.63;;;;;;;;;;6186602;23;20005;-87
2022/03/25 22:09:21;;;;;;;29.23;19.88;;;;;;;;;;6160450;23;20413;-90
2022/03/25 22:11:47;;;;;;;28.77;20.40;;;;;;;;;;6185464;23;20005;-86
2022/03/25 22:14:14;;;;;;;34.05;21.48;;;;;;;;;;6186727;23;20009;-86
2022/03/25 22:16:40;;;;;;;28.77;19.30;;;;;;;;;;6186715;23;20001;-87
2022/03/25 22:19:06;;;;;;;30.65;19.88;;;;;;;;;;6160344;23;20396;-89
2022/03/25 22:21:32;;;;;;;29.83;20.63;;;;;;;;;;6160958;23;20036;-90
2022/03/25 22:23:59;;;;;;;28.77;19.23;;;;;;;;;;6186432;23;20329;-86
2022/03/25 22:26:25;;;;;;;28.00;18.92;;;;;;;;;;6186721;23;20027;-92
2022/03/25 22:28:50;;;;;;;27.98;18.08;;;;;;;;;;6186836;23;20428;-91
2022/03/25 22:31:16;;;;;;;27.40;18.77;;;;;;;;;;6185181;23;20009;-89
2022/03/25 22:33:41;;;;;;;28.23;18.95;;;;;;;;;;6188525;23;20067;-92
2022/03/25 22:36:06;;;;;;;27.05;18.38;;;;;;;;;;6188260;23;20001;-86
2022/03/25 22:38:32;;;;;;;25.20;18.20;;;;;;;;;;6188171;23;20037;-85
2022/03/25 22:40:58;;;;;;;29.50;18.58;;;;;;;;;;6161837;23;20421;-88
2022/03/25 22:43:23;;;;;;;26.63;17.60;;;;;;;;;;6162739;23;20009;-91
2022/03/25 22:45:49;;;;;;;31.67;18.70;;;;;;;;;;6189138;23;20005;-92
2022/03/25 22:48:16;;;;;;;28.98;18.80;;;;;;;;;;6162613;23;20432;-94
2022/03/25 22:50:41;;;;;;;25.27;17.48;;;;;;;;;;6188475;23;20005;-92
2022/03/25 22:53:07;;;;;;;29.13;18.75;;;;;;;;;;6162230;23;20023;-86
2022/03/25 22:55:32;;;;;;;26.55;18.17;;;;;;;;;;6162582;23;20012;-93
2022/03/25 22:57:58;;;;;;;29.02;19.30;;;;;;;;;;6191293;23;20005;-85
2022/03/25 23:00:42;;;;;;;26.23;17.58;;;;;;;;;;6189988;23;20009;-90
2022/03/25 23:03:08;;;;;;;30.20;18.63;;;;;;;;;;6188902;23;20084;-87
2022/03/25 23:05:34;;;;;;;28.83;18.52;;;;;;;;;;6188802;23;20089;-91
2022/03/25 23:07:59;;;;;;;25.83;18.10;;;;;;;;;;6188363;23;20001;-90
2022/03/25 23:10:26;;;;;;;26.55;18.10;;;;;;;;;;6188993;23;20028;-87
2022/03/25 23:12:52;;;;;;;28.92;18.48;;;;;;;;;;6162363;23;20001;-88
2022/03/25 23:15:17;;;;;;;30.90;17.13;;;;;;;;;;6188712;23;20001;-92
2022/03/25 23:17:43;;;;;;;26.20;17.70;;;;;;;;;;6189330;23;20424;-93
2022/03/25 23:20:09;;;;;;;27.58;18.50;;;;;;;;;;6194764;23;20059;-88
2022/03/25 23:22:34;;;;;;;24.83;17.35;;;;;;;;;;6194308;23;20024;-85
2022/03/25 23:25:00;;;;;;;28.10;17.48;;;;;;;;;;6170238;23;20009;-90
2022/03/25 23:27:25;;;;;;;26.17;18.40;;;;;;;;;;6196003;23;20031;-87
2022/03/25 23:29:51;;;;;;;29.27;18.70;;;;;;;;;;6198136;23;20005;-86
2022/03/25 23:32:16;;;;;;;26.90;17.80;;;;;;;;;;6196424;23;20067;-94
2022/03/25 23:34:42;;;;;;;28.27;18.17;;;;;;;;;;6197944;23;20060;-87
2022/03/25 23:37:09;;;;;;;26.88;18.35;;;;;;;;;;6197539;23;20077;-94
2022/03/25 23:39:35;;;;;;;26.05;18.30;;;;;;;;;;6188795;23;19997;-86
2022/03/25 23:42:01;;;;;;;26.50;17.60;;;;;;;;;;6161823;23;20012;-85
2022/03/25 23:44:26;;;;;;;29.23;17.88;;;;;;;;;;6186219;23;20421;-86
2022/03/25 23:46:52;;;;;;;30.85;18.95;;;;;;;;;;6187741;23;20008;-84
2022/03/25 23:49:17;;;;;;;28.08;18.75;;;;;;;;;;6187439;23;20009;-85
2022/03/25 23:51:43;;;;;;;26.80;18.38;;;;;;;;;;6188081;23;20037;-92
2022/03/25 23:54:08;;;;;;;29.10;18.92;;;;;;;;;;6188282;23;20447;-84
